sensor_id;sensor_type;location;lat;lon;timestamp;temperature;humidity
21108;DHT22;10712;52.944;9.098;2022-08-21T00:02:03;14.90;79.70
21108;DHT22;10712;52.944;9.098;2022-08-21T00:04:30;14.90;79.80
21108;DHT22;10712;52.944;9.098;2022-08-21T00:06:56;14.90;80.00
21108;DHT22;10712;52.944;9.098;2022-08-21T00:09:24;14.90;79.90
21108;DHT22;10712;52.944;9.098;2022-08-21T00:11:50;14.90;79.90
21108;DHT22;10712;52.944;9.098;2022-08-21T00:14:16;14.90;79.90
21108;DHT22;10712;52.944;9.098;2022-08-21T00:16:42;15.00;79.70
21108;DHT22;10712;52.944;9.098;2022-08-21T00:19:08;15.00;79.40
21108;DHT22;10712;52.944;9.098;2022-08-21T00:21:34;15.00;79.30
21108;DHT22;10712;52.944;9.098;2022-08-21T00:24:01;15.00;79.10
21108;DHT22;10712;52.944;9.098;2022-08-21T00:26:27;15.00;79.10
21108;DHT22;10712;52.944;9.098;2022-08-21T00:28:53;14.90;79.10
21108;DHT22;10712;52.944;9.098;2022-08-21T00:31:19;14.90;79.30
21108;DHT22;10712;52.944;9.098;2022-08-21T00:33:45;14.90;79.30
21108;DHT22;10712;52.944;9.098;2022-08-21T00:36:11;14.90;79.30
21108;DHT22;10712;52.944;9.098;2022-08-21T00:38:38;14.90;79.50
21108;DHT22;10712;52.944;9.098;2022-08-21T00:41:07;14.90;79.60
21108;DHT22;10712;52.944;9.098;2022-08-21T00:43:36;14.90;79.80
21108;DHT22;10712;52.944;9.098;2022-08-21T00:46:05;14.90;79.70
21108;DHT22;10712;52.944;9.098;2022-08-21T00:48:32;14.90;79.50
21108;DHT22;10712;52.944;9.098;2022-08-21T00:51:06;14.90;79.40
21108;DHT22;10712;52.944;9.098;2022-08-21T00:53:39;15.00;79.30
21108;DHT22;10712;52.944;9.098;2022-08-21T00:56:11;15.00;79.20
21108;DHT22;10712;52.944;9.098;2022-08-21T00:58:41;14.90;79.00
21108;DHT22;10712;52.944;9.098;2022-08-21T01:01:09;14.90;78.90
21108;DHT22;10712;52.944;9.098;2022-08-21T01:03:35;14.90;78.70
21108;DHT22;10712;52.944;9.098;2022-08-21T01:06:02;14.90;78.70
21108;DHT22;10712;52.944;9.098;2022-08-21T01:08:30;14.80;78.60
21108;DHT22;10712;52.944;9.098;2022-08-21T01:10:58;14.70;78.80
21108;DHT22;10712;52.944;9.098;2022-08-21T01:13:27;14.60;79.10
21108;DHT22;10712;52.944;9.098;2022-08-21T01:15:58;14.60;79.40
21108;DHT22;10712;52.944;9.098;2022-08-21T01:18:27;14.60;79.60
21108;DHT22;10712;52.944;9.098;2022-08-21T01:21:14;14.50;79.80
21108;DHT22;10712;52.944;9.098;2022-08-21T01:23:49;14.50;80.00
21108;DHT22;10712;52.944;9.098;2022-08-21T01:26:22;14.50;80.20
21108;DHT22;10712;52.944;9.098;2022-08-21T01:29:00;14.50;80.20
21108;DHT22;10712;52.944;9.098;2022-08-21T01:31:31;14.50;80.30
21108;DHT22;10712;52.944;9.098;2022-08-21T01:33:58;14.50;80.20
21108;DHT22;10712;52.944;9.098;2022-08-21T01:36:25;14.50;80.30
21108;DHT22;10712;52.944;9.098;2022-08-21T01:38:52;14.40;80.30
21108;DHT22;10712;52.944;9.098;2022-08-21T01:41:18;14.40;80.50
21108;DHT22;10712;52.944;9.098;2022-08-21T01:43:44;14.30;80.50
21108;DHT22;10712;52.944;9.098;2022-08-21T01:46:11;14.30;80.60
21108;DHT22;10712;52.944;9.098;2022-08-21T01:48:38;14.30;80.50
21108;DHT22;10712;52.944;9.098;2022-08-21T01:51:05;14.20;80.40
21108;DHT22;10712;52.944;9.098;2022-08-21T01:53:32;14.20;80.30
21108;DHT22;10712;52.944;9.098;2022-08-21T01:56:02;14.10;80.40
21108;DHT22;10712;52.944;9.098;2022-08-21T01:58:29;14.10;80.50
21108;DHT22;10712;52.944;9.098;2022-08-21T02:00:55;14.10;80.50
21108;DHT22;10712;52.944;9.098;2022-08-21T02:03:21;14.10;80.50
21108;DHT22;10712;52.944;9.098;2022-08-21T02:05:47;14.00;80.50
21108;DHT22;10712;52.944;9.098;2022-08-21T02:08:13;14.00;80.70
21108;DHT22;10712;52.944;9.098;2022-08-21T02:10:39;13.90;80.80
21108;DHT22;10712;52.944;9.098;2022-08-21T02:13:06;13.90;81.00
21108;DHT22;10712;52.944;9.098;2022-08-21T02:15:34;13.80;81.10
21108;DHT22;10712;52.944;9.098;2022-08-21T02:18:01;13.80;81.00
21108;DHT22;10712;52.944;9.098;2022-08-21T02:20:36;13.80;81.20
21108;DHT22;10712;52.944;9.098;2022-08-21T02:23:06;13.70;81.20
21108;DHT22;10712;52.944;9.098;2022-08-21T02:25:33;13.70;81.40
21108;DHT22;10712;52.944;9.098;2022-08-21T02:28:04;13.60;81.50
21108;DHT22;10712;52.944;9.098;2022-08-21T02:30:37;13.60;81.70
21108;DHT22;10712;52.944;9.098;2022-08-21T02:33:08;13.60;81.90
21108;DHT22;10712;52.944;9.098;2022-08-21T02:35:36;13.60;82.00
21108;DHT22;10712;52.944;9.098;2022-08-21T02:38:06;13.60;82.10
21108;DHT22;10712;52.944;9.098;2022-08-21T02:40:35;13.60;82.20
21108;DHT22;10712;52.944;9.098;2022-08-21T02:43:05;13.60;82.30
21108;DHT22;10712;52.944;9.098;2022-08-21T02:45:33;13.60;82.20
21108;DHT22;10712;52.944;9.098;2022-08-21T02:48:04;13.60;82.20
21108;DHT22;10712;52.944;9.098;2022-08-21T02:50:35;13.60;82.20
21108;DHT22;10712;52.944;9.098;2022-08-21T02:53:04;13.60;82.20
21108;DHT22;10712;52.944;9.098;2022-08-21T02:55:32;13.60;82.10
21108;DHT22;10712;52.944;9.098;2022-08-21T02:58:01;13.60;82.00
21108;DHT22;10712;52.944;9.098;2022-08-21T03:00:29;13.60;81.50
21108;DHT22;10712;52.944;9.098;2022-08-21T03:02:57;13.50;81.30
21108;DHT22;10712;52.944;9.098;2022-08-21T03:05:26;13.40;81.80
21108;DHT22;10712;52.944;9.098;2022-08-21T03:07:57;13.30;82.20
21108;DHT22;10712;52.944;9.098;2022-08-21T03:10:25;13.20;82.40
21108;DHT22;10712;52.944;9.098;2022-08-21T03:12:51;13.20;82.40
21108;DHT22;10712;52.944;9.098;2022-08-21T03:15:20;13.20;82.50
21108;DHT22;10712;52.944;9.098;2022-08-21T03:17:48;13.20;82.70
21108;DHT22;10712;52.944;9.098;2022-08-21T03:20:16;13.20;82.70
21108;DHT22;10712;52.944;9.098;2022-08-21T03:22:43;13.20;82.70
21108;DHT22;10712;52.944;9.098;2022-08-21T03:25:10;13.20;82.80
21108;DHT22;10712;52.944;9.098;2022-08-21T03:27:36;13.30;82.80
21108;DHT22;10712;52.944;9.098;2022-08-21T03:30:05;13.30;82.80
21108;DHT22;10712;52.944;9.098;2022-08-21T03:32:32;13.30;82.90
21108;DHT22;10712;52.944;9.098;2022-08-21T03:34:58;13.30;82.90
21108;DHT22;10712;52.944;9.098;2022-08-21T03:37:26;13.30;83.10
21108;DHT22;10712;52.944;9.098;2022-08-21T03:39:52;13.30;83.30
21108;DHT22;10712;52.944;9.098;2022-08-21T03:42:19;13.40;83.50
21108;DHT22;10712;52.944;9.098;2022-08-21T03:44:45;13.40;83.60
21108;DHT22;10712;52.944;9.098;2022-08-21T03:47:11;13.50;83.60
21108;DHT22;10712;52.944;9.098;2022-08-21T03:49:37;13.50;83.50
21108;DHT22;10712;52.944;9.098;2022-08-21T03:52:04;13.50;83.50
21108;DHT22;10712;52.944;9.098;2022-08-21T03:54:30;13.60;83.50
21108;DHT22;10712;52.944;9.098;2022-08-21T03:56:57;13.60;83.40
21108;DHT22;10712;52.944;9.098;2022-08-21T03:59:23;13.60;83.20
21108;DHT22;10712;52.944;9.098;2022-08-21T04:01:54;13.60;82.90
21108;DHT22;10712;52.944;9.098;2022-08-21T04:04:21;13.60;82.90
21108;DHT22;10712;52.944;9.098;2022-08-21T04:06:48;13.50;83.20
21108;DHT22;10712;52.944;9.098;2022-08-21T04:09:16;13.50;83.40
21108;DHT22;10712;52.944;9.098;2022-08-21T04:11:42;13.50;83.50
21108;DHT22;10712;52.944;9.098;2022-08-21T04:14:08;13.50;83.70
21108;DHT22;10712;52.944;9.098;2022-08-21T04:16:35;13.50;83.70
21108;DHT22;10712;52.944;9.098;2022-08-21T04:19:00;13.50;83.90
21108;DHT22;10712;52.944;9.098;2022-08-21T04:21:27;13.60;83.90
21108;DHT22;10712;52.944;9.098;2022-08-21T04:23:57;13.60;84.00
21108;DHT22;10712;52.944;9.098;2022-08-21T04:26:23;13.60;84.20
21108;DHT22;10712;52.944;9.098;2022-08-21T04:28:49;13.60;84.40
21108;DHT22;10712;52.944;9.098;2022-08-21T04:31:15;13.60;84.50
21108;DHT22;10712;52.944;9.098;2022-08-21T04:33:41;13.70;84.50
21108;DHT22;10712;52.944;9.098;2022-08-21T04:36:07;13.70;84.50
21108;DHT22;10712;52.944;9.098;2022-08-21T04:38:33;13.80;84.20
21108;DHT22;10712;52.944;9.098;2022-08-21T04:40:59;13.80;84.10
21108;DHT22;10712;52.944;9.098;2022-08-21T04:43:25;13.80;84.10
21108;DHT22;10712;52.944;9.098;2022-08-21T04:45:52;13.80;84.00
21108;DHT22;10712;52.944;9.098;2022-08-21T04:48:21;13.70;84.00
21108;DHT22;10712;52.944;9.098;2022-08-21T04:53:31;13.70;84.50
21108;DHT22;10712;52.944;9.098;2022-08-21T04:56:05;13.80;84.50
21108;DHT22;10712;52.944;9.098;2022-08-21T04:58:34;13.80;84.40
21108;DHT22;10712;52.944;9.098;2022-08-21T05:01:04;13.80;84.40
21108;DHT22;10712;52.944;9.098;2022-08-21T05:03:34;13.80;84.40
21108;DHT22;10712;52.944;9.098;2022-08-21T05:06:05;13.80;84.40
21108;DHT22;10712;52.944;9.098;2022-08-21T05:08:33;13.80;84.40
21108;DHT22;10712;52.944;9.098;2022-08-21T05:11:00;13.80;84.40
21108;DHT22;10712;52.944;9.098;2022-08-21T05:13:26;13.80;84.50
21108;DHT22;10712;52.944;9.098;2022-08-21T05:15:52;13.80;84.60
21108;DHT22;10712;52.944;9.098;2022-08-21T05:18:18;13.80;84.80
21108;DHT22;10712;52.944;9.098;2022-08-21T05:20:44;13.80;84.90
21108;DHT22;10712;52.944;9.098;2022-08-21T05:23:13;13.80;85.20
21108;DHT22;10712;52.944;9.098;2022-08-21T05:25:40;13.80;85.40
21108;DHT22;10712;52.944;9.098;2022-08-21T05:28:07;13.80;85.50
21108;DHT22;10712;52.944;9.098;2022-08-21T05:30:33;13.90;85.70
21108;DHT22;10712;52.944;9.098;2022-08-21T05:33:02;13.90;85.90
21108;DHT22;10712;52.944;9.098;2022-08-21T05:35:32;14.00;85.90
21108;DHT22;10712;52.944;9.098;2022-08-21T05:38:00;14.00;85.80
21108;DHT22;10712;52.944;9.098;2022-08-21T05:40:26;14.00;85.90
21108;DHT22;10712;52.944;9.098;2022-08-21T05:42:54;14.10;85.80
21108;DHT22;10712;52.944;9.098;2022-08-21T05:45:26;14.10;85.80
21108;DHT22;10712;52.944;9.098;2022-08-21T05:47:53;14.10;85.80
21108;DHT22;10712;52.944;9.098;2022-08-21T05:50:20;14.20;85.90
21108;DHT22;10712;52.944;9.098;2022-08-21T05:52:46;14.20;85.90
21108;DHT22;10712;52.944;9.098;2022-08-21T05:55:11;14.30;85.80
21108;DHT22;10712;52.944;9.098;2022-08-21T05:57:38;14.30;85.90
21108;DHT22;10712;52.944;9.098;2022-08-21T06:00:07;14.40;86.00
21108;DHT22;10712;52.944;9.098;2022-08-21T06:02:39;14.40;86.00
21108;DHT22;10712;52.944;9.098;2022-08-21T06:05:06;14.50;86.10
21108;DHT22;10712;52.944;9.098;2022-08-21T06:07:32;14.60;86.10
21108;DHT22;10712;52.944;9.098;2022-08-21T06:09:59;14.60;85.90
21108;DHT22;10712;52.944;9.098;2022-08-21T06:12:25;14.70;85.70
21108;DHT22;10712;52.944;9.098;2022-08-21T06:14:51;14.80;85.50
21108;DHT22;10712;52.944;9.098;2022-08-21T06:17:17;14.90;85.50
21108;DHT22;10712;52.944;9.098;2022-08-21T06:19:44;14.90;85.40
21108;DHT22;10712;52.944;9.098;2022-08-21T06:22:10;15.00;85.20
21108;DHT22;10712;52.944;9.098;2022-08-21T06:24:36;15.10;85.30
21108;DHT22;10712;52.944;9.098;2022-08-21T06:27:08;15.20;85.20
21108;DHT22;10712;52.944;9.098;2022-08-21T06:29:35;15.30;85.10
21108;DHT22;10712;52.944;9.098;2022-08-21T06:32:01;15.40;84.90
21108;DHT22;10712;52.944;9.098;2022-08-21T06:34:28;15.50;84.90
21108;DHT22;10712;52.944;9.098;2022-08-21T06:36:54;15.60;84.80
21108;DHT22;10712;52.944;9.098;2022-08-21T06:39:19;15.70;84.80
21108;DHT22;10712;52.944;9.098;2022-08-21T06:41:45;15.80;84.60
21108;DHT22;10712;52.944;9.098;2022-08-21T06:44:11;15.90;84.30
21108;DHT22;10712;52.944;9.098;2022-08-21T06:46:37;16.00;84.20
21108;DHT22;10712;52.944;9.098;2022-08-21T06:49:04;16.00;83.90
21108;DHT22;10712;52.944;9.098;2022-08-21T06:51:29;16.10;83.70
21108;DHT22;10712;52.944;9.098;2022-08-21T06:53:56;16.30;83.40
21108;DHT22;10712;52.944;9.098;2022-08-21T06:56:22;16.40;83.30
21108;DHT22;10712;52.944;9.098;2022-08-21T06:58:48;16.50;83.20
21108;DHT22;10712;52.944;9.098;2022-08-21T07:01:14;16.60;83.00
21108;DHT22;10712;52.944;9.098;2022-08-21T07:03:42;16.60;82.70
21108;DHT22;10712;52.944;9.098;2022-08-21T07:06:10;16.70;82.50
21108;DHT22;10712;52.944;9.098;2022-08-21T07:08:36;16.80;82.30
21108;DHT22;10712;52.944;9.098;2022-08-21T07:11:11;16.90;82.20
21108;DHT22;10712;52.944;9.098;2022-08-21T07:13:40;17.00;81.80
21108;DHT22;10712;52.944;9.098;2022-08-21T07:16:06;17.10;81.50
21108;DHT22;10712;52.944;9.098;2022-08-21T07:18:34;17.10;81.20
21108;DHT22;10712;52.944;9.098;2022-08-21T07:21:01;17.20;81.00
21108;DHT22;10712;52.944;9.098;2022-08-21T07:23:43;17.30;80.90
21108;DHT22;10712;52.944;9.098;2022-08-21T07:26:16;17.40;80.80
21108;DHT22;10712;52.944;9.098;2022-08-21T07:28:45;17.50;80.70
21108;DHT22;10712;52.944;9.098;2022-08-21T07:31:13;17.60;80.50
21108;DHT22;10712;52.944;9.098;2022-08-21T07:33:43;17.70;80.30
21108;DHT22;10712;52.944;9.098;2022-08-21T07:36:10;17.80;80.10
21108;DHT22;10712;52.944;9.098;2022-08-21T07:38:36;17.80;79.90
21108;DHT22;10712;52.944;9.098;2022-08-21T07:41:17;17.90;79.40
21108;DHT22;10712;52.944;9.098;2022-08-21T07:43:44;18.10;79.20
21108;DHT22;10712;52.944;9.098;2022-08-21T07:46:11;18.10;79.00
21108;DHT22;10712;52.944;9.098;2022-08-21T07:48:38;18.20;78.80
21108;DHT22;10712;52.944;9.098;2022-08-21T07:51:10;18.40;78.40
21108;DHT22;10712;52.944;9.098;2022-08-21T07:53:39;18.50;78.00
21108;DHT22;10712;52.944;9.098;2022-08-21T07:56:06;18.50;77.60
21108;DHT22;10712;52.944;9.098;2022-08-21T07:58:36;18.60;77.10
21108;DHT22;10712;52.944;9.098;2022-08-21T08:01:02;18.70;76.90
21108;DHT22;10712;52.944;9.098;2022-08-21T08:03:28;18.80;76.70
21108;DHT22;10712;52.944;9.098;2022-08-21T08:05:54;18.90;76.50
21108;DHT22;10712;52.944;9.098;2022-08-21T08:08:19;19.00;76.10
21108;DHT22;10712;52.944;9.098;2022-08-21T08:10:45;19.10;75.60
21108;DHT22;10712;52.944;9.098;2022-08-21T08:13:11;19.20;75.10
21108;DHT22;10712;52.944;9.098;2022-08-21T08:15:37;19.30;74.80
21108;DHT22;10712;52.944;9.098;2022-08-21T08:18:03;19.40;74.50
21108;DHT22;10712;52.944;9.098;2022-08-21T08:20:29;19.50;74.10
21108;DHT22;10712;52.944;9.098;2022-08-21T08:22:56;19.60;73.60
21108;DHT22;10712;52.944;9.098;2022-08-21T08:25:23;19.70;72.60
21108;DHT22;10712;52.944;9.098;2022-08-21T08:27:49;19.70;72.00
21108;DHT22;10712;52.944;9.098;2022-08-21T08:30:18;19.80;71.30
21108;DHT22;10712;52.944;9.098;2022-08-21T08:32:45;19.90;70.50
21108;DHT22;10712;52.944;9.098;2022-08-21T08:35:12;19.90;69.20
21108;DHT22;10712;52.944;9.098;2022-08-21T08:37:39;20.00;69.00
21108;DHT22;10712;52.944;9.098;2022-08-21T08:40:14;20.00;68.90
21108;DHT22;10712;52.944;9.098;2022-08-21T08:42:47;20.10;67.10
21108;DHT22;10712;52.944;9.098;2022-08-21T08:45:18;20.20;65.30
21108;DHT22;10712;52.944;9.098;2022-08-21T08:48:02;20.30;65.60
21108;DHT22;10712;52.944;9.098;2022-08-21T08:50:49;20.40;65.30
21108;DHT22;10712;52.944;9.098;2022-08-21T08:53:32;20.50;64.80
21108;DHT22;10712;52.944;9.098;2022-08-21T08:56:04;20.60;64.30
21108;DHT22;10712;52.944;9.098;2022-08-21T08:58:36;20.60;63.80
21108;DHT22;10712;52.944;9.098;2022-08-21T09:01:17;20.70;63.00
21108;DHT22;10712;52.944;9.098;2022-08-21T09:03:46;20.80;63.10
21108;DHT22;10712;52.944;9.098;2022-08-21T09:06:44;20.90;63.50
21108;DHT22;10712;52.944;9.098;2022-08-21T09:10:10;21.00;63.20
21108;DHT22;10712;52.944;9.098;2022-08-21T09:22:00;21.40;61.40
21108;DHT22;10712;52.944;9.098;2022-08-21T09:25:22;21.40;62.20
21108;DHT22;10712;52.944;9.098;2022-08-21T09:27:47;21.50;60.90
21108;DHT22;10712;52.944;9.098;2022-08-21T09:30:14;21.50;61.90
21108;DHT22;10712;52.944;9.098;2022-08-21T09:32:41;21.60;61.70
21108;DHT22;10712;52.944;9.098;2022-08-21T09:35:16;21.60;61.50
21108;DHT22;10712;52.944;9.098;2022-08-21T09:38:06;21.70;61.90
21108;DHT22;10712;52.944;9.098;2022-08-21T09:40:37;21.80;61.80
21108;DHT22;10712;52.944;9.098;2022-08-21T09:43:17;21.90;61.20
21108;DHT22;10712;52.944;9.098;2022-08-21T09:45:46;22.00;61.30
21108;DHT22;10712;52.944;9.098;2022-08-21T09:48:24;22.10;60.50
21108;DHT22;10712;52.944;9.098;2022-08-21T09:50:51;22.10;60.60
21108;DHT22;10712;52.944;9.098;2022-08-21T09:53:29;22.10;61.20
21108;DHT22;10712;52.944;9.098;2022-08-21T09:56:00;22.20;59.90
21108;DHT22;10712;52.944;9.098;2022-08-21T09:58:48;22.20;60.60
21108;DHT22;10712;52.944;9.098;2022-08-21T10:01:22;22.30;60.40
21108;DHT22;10712;52.944;9.098;2022-08-21T10:04:11;22.30;59.90
21108;DHT22;10712;52.944;9.098;2022-08-21T10:06:37;22.40;59.30
21108;DHT22;10712;52.944;9.098;2022-08-21T10:09:15;22.40;59.90
21108;DHT22;10712;52.944;9.098;2022-08-21T10:12:07;22.50;60.20
21108;DHT22;10712;52.944;9.098;2022-08-21T10:20:33;22.50;59.10
21108;DHT22;10712;52.944;9.098;2022-08-21T10:31:55;22.60;58.10
21108;DHT22;10712;52.944;9.098;2022-08-21T10:40:14;22.60;57.90
21108;DHT22;10712;52.944;9.098;2022-08-21T10:48:37;22.60;58.70
21108;DHT22;10712;52.944;9.098;2022-08-21T10:51:16;22.70;57.50
21108;DHT22;10712;52.944;9.098;2022-08-21T10:56:36;22.70;58.30
21108;DHT22;10712;52.944;9.098;2022-08-21T11:07:34;23.10;57.30
21108;DHT22;10712;52.944;9.098;2022-08-21T11:10:10;23.20;57.20
21108;DHT22;10712;52.944;9.098;2022-08-21T11:13:03;23.20;57.50
21108;DHT22;10712;52.944;9.098;2022-08-21T11:15:58;23.20;57.30
21108;DHT22;10712;52.944;9.098;2022-08-21T11:18:34;23.10;57.20
21108;DHT22;10712;52.944;9.098;2022-08-21T11:21:32;23.10;57.60
21108;DHT22;10712;52.944;9.098;2022-08-21T11:24:29;23.10;57.40
21108;DHT22;10712;52.944;9.098;2022-08-21T11:30:06;23.10;56.80
21108;DHT22;10712;52.944;9.098;2022-08-21T11:35:27;23.10;56.60
21108;DHT22;10712;52.944;9.098;2022-08-21T11:45:55;22.90;56.80
21108;DHT22;10712;52.944;9.098;2022-08-21T11:51:58;23.00;56.60
21108;DHT22;10712;52.944;9.098;2022-08-21T11:55:19;23.00;56.60
21108;DHT22;10712;52.944;9.098;2022-08-21T11:58:30;23.00;56.00
21108;DHT22;10712;52.944;9.098;2022-08-21T12:01:15;23.00;56.30
21108;DHT22;10712;52.944;9.098;2022-08-21T12:04:24;23.10;55.90
21108;DHT22;10712;52.944;9.098;2022-08-21T12:06:52;23.10;56.20
21108;DHT22;10712;52.944;9.098;2022-08-21T12:11:59;23.30;54.90
21108;DHT22;10712;52.944;9.098;2022-08-21T12:14:42;23.30;53.90
21108;DHT22;10712;52.944;9.098;2022-08-21T12:17:23;23.30;54.10
21108;DHT22;10712;52.944;9.098;2022-08-21T12:20:16;23.30;54.50
21108;DHT22;10712;52.944;9.098;2022-08-21T12:22:52;23.30;54.80
21108;DHT22;10712;52.944;9.098;2022-08-21T12:25:44;23.20;54.60
21108;DHT22;10712;52.944;9.098;2022-08-21T12:28:24;23.20;55.30
21108;DHT22;10712;52.944;9.098;2022-08-21T12:30:52;23.30;55.80
21108;DHT22;10712;52.944;9.098;2022-08-21T12:33:23;23.50;54.80
21108;DHT22;10712;52.944;9.098;2022-08-21T12:36:15;23.60;55.20
21108;DHT22;10712;52.944;9.098;2022-08-21T12:39:12;23.80;54.40
21108;DHT22;10712;52.944;9.098;2022-08-21T12:44:46;24.00;53.30
21108;DHT22;10712;52.944;9.098;2022-08-21T12:50:36;24.30;51.90
21108;DHT22;10712;52.944;9.098;2022-08-21T12:53:08;24.40;51.80
21108;DHT22;10712;52.944;9.098;2022-08-21T12:55:41;24.40;51.60
21108;DHT22;10712;52.944;9.098;2022-08-21T12:58:21;24.50;50.80
21108;DHT22;10712;52.944;9.098;2022-08-21T13:00:56;24.60;52.00
21108;DHT22;10712;52.944;9.098;2022-08-21T13:03:30;24.70;50.70
21108;DHT22;10712;52.944;9.098;2022-08-21T13:05:58;24.70;51.50
21108;DHT22;10712;52.944;9.098;2022-08-21T13:08:26;24.80;51.10
21108;DHT22;10712;52.944;9.098;2022-08-21T13:10:59;24.90;50.60
21108;DHT22;10712;52.944;9.098;2022-08-21T13:13:28;24.90;50.70
21108;DHT22;10712;52.944;9.098;2022-08-21T13:16:02;25.00;50.70
21108;DHT22;10712;52.944;9.098;2022-08-21T13:18:33;25.00;50.40
21108;DHT22;10712;52.944;9.098;2022-08-21T13:21:30;24.90;50.40
21108;DHT22;10712;52.944;9.098;2022-08-21T13:24:16;24.90;50.70
21108;DHT22;10712;52.944;9.098;2022-08-21T13:26:51;24.80;50.80
21108;DHT22;10712;52.944;9.098;2022-08-21T13:29:19;24.70;50.90
21108;DHT22;10712;52.944;9.098;2022-08-21T13:31:55;24.60;50.80
21108;DHT22;10712;52.944;9.098;2022-08-21T13:34:33;24.50;51.40
21108;DHT22;10712;52.944;9.098;2022-08-21T13:37:05;24.30;51.80
21108;DHT22;10712;52.944;9.098;2022-08-21T13:39:34;24.30;52.20
21108;DHT22;10712;52.944;9.098;2022-08-21T13:42:03;24.20;52.70
21108;DHT22;10712;52.944;9.098;2022-08-21T13:44:50;24.20;52.50
21108;DHT22;10712;52.944;9.098;2022-08-21T13:47:19;24.20;52.60
21108;DHT22;10712;52.944;9.098;2022-08-21T13:49:47;24.20;52.30
21108;DHT22;10712;52.944;9.098;2022-08-21T13:52:25;24.30;52.10
21108;DHT22;10712;52.944;9.098;2022-08-21T13:54:57;24.30;52.50
21108;DHT22;10712;52.944;9.098;2022-08-21T13:57:35;24.40;52.20
21108;DHT22;10712;52.944;9.098;2022-08-21T14:02:42;24.40;51.50
21108;DHT22;10712;52.944;9.098;2022-08-21T14:05:29;24.40;51.30
21108;DHT22;10712;52.944;9.098;2022-08-21T14:08:10;24.50;52.10
21108;DHT22;10712;52.944;9.098;2022-08-21T14:10:46;24.50;51.70
21108;DHT22;10712;52.944;9.098;2022-08-21T14:13:37;24.60;51.20
21108;DHT22;10712;52.944;9.098;2022-08-21T14:16:20;24.70;51.10
21108;DHT22;10712;52.944;9.098;2022-08-21T14:18:55;24.80;50.70
21108;DHT22;10712;52.944;9.098;2022-08-21T14:21:38;24.90;50.70
21108;DHT22;10712;52.944;9.098;2022-08-21T14:27:07;25.10;50.40
21108;DHT22;10712;52.944;9.098;2022-08-21T14:29:40;25.20;50.10
21108;DHT22;10712;52.944;9.098;2022-08-21T14:32:18;25.30;49.20
21108;DHT22;10712;52.944;9.098;2022-08-21T14:34:46;25.30;48.70
21108;DHT22;10712;52.944;9.098;2022-08-21T14:37:12;25.20;48.90
21108;DHT22;10712;52.944;9.098;2022-08-21T14:39:38;25.10;48.90
21108;DHT22;10712;52.944;9.098;2022-08-21T14:42:04;25.20;48.60
21108;DHT22;10712;52.944;9.098;2022-08-21T14:44:30;25.20;48.60
21108;DHT22;10712;52.944;9.098;2022-08-21T14:46:58;25.20;49.10
21108;DHT22;10712;52.944;9.098;2022-08-21T14:49:27;25.20;48.90
21108;DHT22;10712;52.944;9.098;2022-08-21T14:51:56;25.20;48.70
21108;DHT22;10712;52.944;9.098;2022-08-21T14:54:27;25.10;48.10
21108;DHT22;10712;52.944;9.098;2022-08-21T14:56:55;25.10;48.50
21108;DHT22;10712;52.944;9.098;2022-08-21T14:59:23;25.10;48.20
21108;DHT22;10712;52.944;9.098;2022-08-21T15:01:49;25.00;48.30
21108;DHT22;10712;52.944;9.098;2022-08-21T15:04:15;25.10;48.60
21108;DHT22;10712;52.944;9.098;2022-08-21T15:06:41;25.10;48.50
21108;DHT22;10712;52.944;9.098;2022-08-21T15:09:07;25.00;48.60
21108;DHT22;10712;52.944;9.098;2022-08-21T15:11:33;25.00;49.20
21108;DHT22;10712;52.944;9.098;2022-08-21T15:14:02;24.90;49.50
21108;DHT22;10712;52.944;9.098;2022-08-21T15:16:32;24.80;50.00
21108;DHT22;10712;52.944;9.098;2022-08-21T15:18:59;24.80;50.00
21108;DHT22;10712;52.944;9.098;2022-08-21T15:21:25;24.70;49.60
21108;DHT22;10712;52.944;9.098;2022-08-21T15:23:51;24.70;49.80
21108;DHT22;10712;52.944;9.098;2022-08-21T15:26:18;24.70;49.80
21108;DHT22;10712;52.944;9.098;2022-08-21T15:28:46;24.70;49.70
21108;DHT22;10712;52.944;9.098;2022-08-21T15:31:12;24.70;49.80
21108;DHT22;10712;52.944;9.098;2022-08-21T15:33:38;24.80;49.60
21108;DHT22;10712;52.944;9.098;2022-08-21T15:36:03;24.80;49.80
21108;DHT22;10712;52.944;9.098;2022-08-21T15:38:29;24.80;50.30
21108;DHT22;10712;52.944;9.098;2022-08-21T15:40:55;24.80;50.00
21108;DHT22;10712;52.944;9.098;2022-08-21T15:43:27;24.80;50.20
21108;DHT22;10712;52.944;9.098;2022-08-21T15:45:56;24.80;50.10
21108;DHT22;10712;52.944;9.098;2022-08-21T15:48:24;24.80;50.50
21108;DHT22;10712;52.944;9.098;2022-08-21T15:50:50;24.70;50.70
21108;DHT22;10712;52.944;9.098;2022-08-21T15:53:16;24.70;50.70
21108;DHT22;10712;52.944;9.098;2022-08-21T15:55:42;24.60;50.80
21108;DHT22;10712;52.944;9.098;2022-08-21T15:58:13;24.60;51.20
21108;DHT22;10712;52.944;9.098;2022-08-21T16:00:42;24.50;50.80
21108;DHT22;10712;52.944;9.098;2022-08-21T16:03:14;24.40;50.90
21108;DHT22;10712;52.944;9.098;2022-08-21T16:05:43;24.40;51.10
21108;DHT22;10712;52.944;9.098;2022-08-21T16:08:10;24.40;50.70
21108;DHT22;10712;52.944;9.098;2022-08-21T16:10:37;24.40;51.20
21108;DHT22;10712;52.944;9.098;2022-08-21T16:13:07;24.40;51.10
21108;DHT22;10712;52.944;9.098;2022-08-21T16:15:40;24.40;50.20
21108;DHT22;10712;52.944;9.098;2022-08-21T16:18:06;24.30;50.10
21108;DHT22;10712;52.944;9.098;2022-08-21T16:20:32;24.30;50.40
21108;DHT22;10712;52.944;9.098;2022-08-21T16:22:58;24.30;50.90
21108;DHT22;10712;52.944;9.098;2022-08-21T16:25:24;24.20;51.80
21108;DHT22;10712;52.944;9.098;2022-08-21T16:27:55;24.20;51.20
21108;DHT22;10712;52.944;9.098;2022-08-21T16:30:23;24.10;51.10
21108;DHT22;10712;52.944;9.098;2022-08-21T16:32:51;24.10;51.40
21108;DHT22;10712;52.944;9.098;2022-08-21T16:35:18;24.10;51.40
21108;DHT22;10712;52.944;9.098;2022-08-21T16:37:45;24.10;51.90
21108;DHT22;10712;52.944;9.098;2022-08-21T16:40:12;24.10;52.10
21108;DHT22;10712;52.944;9.098;2022-08-21T16:42:40;24.10;51.90
21108;DHT22;10712;52.944;9.098;2022-08-21T16:45:11;24.10;51.70
21108;DHT22;10712;52.944;9.098;2022-08-21T16:47:39;24.10;51.50
21108;DHT22;10712;52.944;9.098;2022-08-21T16:50:06;24.10;52.10
21108;DHT22;10712;52.944;9.098;2022-08-21T16:52:33;24.10;52.90
21108;DHT22;10712;52.944;9.098;2022-08-21T16:54:59;24.00;52.70
21108;DHT22;10712;52.944;9.098;2022-08-21T16:57:25;23.90;53.20
21108;DHT22;10712;52.944;9.098;2022-08-21T16:59:52;23.90;53.50
21108;DHT22;10712;52.944;9.098;2022-08-21T17:02:30;23.80;53.40
21108;DHT22;10712;52.944;9.098;2022-08-21T17:04:59;23.70;53.60
21108;DHT22;10712;52.944;9.098;2022-08-21T17:07:27;23.60;53.80
21108;DHT22;10712;52.944;9.098;2022-08-21T17:09:54;23.60;54.10
21108;DHT22;10712;52.944;9.098;2022-08-21T17:12:20;23.50;54.50
21108;DHT22;10712;52.944;9.098;2022-08-21T17:14:47;23.40;54.80